sensor_id;sensor_type;location;lat;lon;timestamp;temperature;humidity
37910;DHT22;23741;49.446;8.754;2023-01-23T00:01:40;7.70;66.10
37910;DHT22;23741;49.446;8.754;2023-01-23T00:03:42;7.70;66.10
37910;DHT22;23741;49.446;8.754;2023-01-23T00:05:44;7.70;66.10
37910;DHT22;23741;49.446;8.754;2023-01-23T00:07:45;7.70;66.10
37910;DHT22;23741;49.446;8.754;2023-01-23T00:09:47;7.70;66.10
37910;DHT22;23741;49.446;8.754;2023-01-23T00:11:49;7.60;66.10
37910;DHT22;23741;49.446;8.754;2023-01-23T00:13:52;7.60;66.10
37910;DHT22;23741;49.446;8.754;2023-01-23T00:15:53;7.60;66.00
37910;DHT22;23741;49.446;8.754;2023-01-23T00:17:55;7.60;65.90
37910;DHT22;23741;49.446;8.754;2023-01-23T00:19:57;7.60;65.90
37910;DHT22;23741;49.446;8.754;2023-01-23T00:22:00;7.60;65.90
37910;DHT22;23741;49.446;8.754;2023-01-23T00:24:02;7.60;65.90
37910;DHT22;23741;49.446;8.754;2023-01-23T00:26:13;7.60;65.80
37910;DHT22;23741;49.446;8.754;2023-01-23T00:28:17;7.60;65.80
37910;DHT22;23741;49.446;8.754;2023-01-23T00:30:19;7.50;65.80
37910;DHT22;23741;49.446;8.754;2023-01-23T00:32:21;7.50;66.00
37910;DHT22;23741;49.446;8.754;2023-01-23T00:34:23;7.50;66.00
37910;DHT22;23741;49.446;8.754;2023-01-23T00:36:29;7.50;66.20
37910;DHT22;23741;49.446;8.754;2023-01-23T00:38:31;7.50;66.40
37910;DHT22;23741;49.446;8.754;2023-01-23T00:40:32;7.50;66.00
37910;DHT22;23741;49.446;8.754;2023-01-23T00:42:34;7.50;66.00
37910;DHT22;23741;49.446;8.754;2023-01-23T00:44:36;7.50;66.10
37910;DHT22;23741;49.446;8.754;2023-01-23T00:46:37;7.50;66.20
37910;DHT22;23741;49.446;8.754;2023-01-23T00:48:39;7.50;66.20
37910;DHT22;23741;49.446;8.754;2023-01-23T00:50:41;7.50;66.40
37910;DHT22;23741;49.446;8.754;2023-01-23T00:52:42;7.50;66.20
37910;DHT22;23741;49.446;8.754;2023-01-23T00:54:44;7.50;66.20
37910;DHT22;23741;49.446;8.754;2023-01-23T00:56:46;7.50;66.20
37910;DHT22;23741;49.446;8.754;2023-01-23T00:58:48;7.50;66.10
37910;DHT22;23741;49.446;8.754;2023-01-23T01:00:50;7.50;65.70
37910;DHT22;23741;49.446;8.754;2023-01-23T01:02:52;7.50;65.80
37910;DHT22;23741;49.446;8.754;2023-01-23T01:04:53;7.50;65.80
37910;DHT22;23741;49.446;8.754;2023-01-23T01:06:55;7.50;65.90
37910;DHT22;23741;49.446;8.754;2023-01-23T01:08:57;7.50;65.90
37910;DHT22;23741;49.446;8.754;2023-01-23T01:10:59;7.50;66.00
37910;DHT22;23741;49.446;8.754;2023-01-23T01:13:01;7.60;66.00
37910;DHT22;23741;49.446;8.754;2023-01-23T01:15:04;7.50;65.80
37910;DHT22;23741;49.446;8.754;2023-01-23T01:17:06;7.50;65.70
37910;DHT22;23741;49.446;8.754;2023-01-23T01:19:08;7.50;65.60
37910;DHT22;23741;49.446;8.754;2023-01-23T01:21:11;7.50;65.50
37910;DHT22;23741;49.446;8.754;2023-01-23T01:23:13;7.50;65.40
37910;DHT22;23741;49.446;8.754;2023-01-23T01:25:15;7.50;65.40
37910;DHT22;23741;49.446;8.754;2023-01-23T01:27:17;7.50;65.40
37910;DHT22;23741;49.446;8.754;2023-01-23T01:29:19;7.50;65.40
37910;DHT22;23741;49.446;8.754;2023-01-23T01:31:20;7.40;65.30
37910;DHT22;23741;49.446;8.754;2023-01-23T01:33:22;7.40;65.40
37910;DHT22;23741;49.446;8.754;2023-01-23T01:35:28;7.40;65.50
37910;DHT22;23741;49.446;8.754;2023-01-23T01:37:33;7.40;65.50
37910;DHT22;23741;49.446;8.754;2023-01-23T01:39:35;7.40;65.60
37910;DHT22;23741;49.446;8.754;2023-01-23T01:41:37;7.40;65.60
37910;DHT22;23741;49.446;8.754;2023-01-23T01:43:39;7.40;65.70
37910;DHT22;23741;49.446;8.754;2023-01-23T01:47:55;7.30;65.80
37910;DHT22;23741;49.446;8.754;2023-01-23T01:49:58;7.30;65.70
37910;DHT22;23741;49.446;8.754;2023-01-23T01:52:02;7.30;65.80
37910;DHT22;23741;49.446;8.754;2023-01-23T01:54:24;7.30;65.90
37910;DHT22;23741;49.446;8.754;2023-01-23T01:56:29;7.30;65.80
37910;DHT22;23741;49.446;8.754;2023-01-23T01:58:33;7.30;65.80
37910;DHT22;23741;49.446;8.754;2023-01-23T02:00:34;7.30;66.00
37910;DHT22;23741;49.446;8.754;2023-01-23T02:04:46;7.30;66.10
37910;DHT22;23741;49.446;8.754;2023-01-23T02:06:48;7.30;66.00
37910;DHT22;23741;49.446;8.754;2023-01-23T02:08:57;7.30;66.00
37910;DHT22;23741;49.446;8.754;2023-01-23T02:11:03;7.30;66.00
37910;DHT22;23741;49.446;8.754;2023-01-23T02:15:20;7.40;66.10
37910;DHT22;23741;49.446;8.754;2023-01-23T02:17:22;7.40;66.10
37910;DHT22;23741;49.446;8.754;2023-01-23T02:19:36;7.40;66.10
37910;DHT22;23741;49.446;8.754;2023-01-23T02:21:40;7.40;65.90
37910;DHT22;23741;49.446;8.754;2023-01-23T02:27:59;7.40;65.90
37910;DHT22;23741;49.446;8.754;2023-01-23T02:30:03;7.40;65.90
37910;DHT22;23741;49.446;8.754;2023-01-23T02:32:06;7.40;66.00
37910;DHT22;23741;49.446;8.754;2023-01-23T02:34:09;7.40;65.90
37910;DHT22;23741;49.446;8.754;2023-01-23T02:36:11;7.40;66.00
37910;DHT22;23741;49.446;8.754;2023-01-23T02:38:13;7.50;65.80
37910;DHT22;23741;49.446;8.754;2023-01-23T02:40:15;7.50;65.80
37910;DHT22;23741;49.446;8.754;2023-01-23T02:42:17;7.50;66.00
37910;DHT22;23741;49.446;8.754;2023-01-23T02:44:24;7.50;65.70
37910;DHT22;23741;49.446;8.754;2023-01-23T02:46:32;7.50;65.80
37910;DHT22;23741;49.446;8.754;2023-01-23T02:48:34;7.50;65.70
37910;DHT22;23741;49.446;8.754;2023-01-23T02:50:36;7.50;65.60
37910;DHT22;23741;49.446;8.754;2023-01-23T02:52:38;7.50;65.60
37910;DHT22;23741;49.446;8.754;2023-01-23T02:54:40;7.50;65.50
37910;DHT22;23741;49.446;8.754;2023-01-23T02:56:43;7.50;65.50
37910;DHT22;23741;49.446;8.754;2023-01-23T02:58:45;7.50;65.50
37910;DHT22;23741;49.446;8.754;2023-01-23T03:01:07;7.50;65.60
37910;DHT22;23741;49.446;8.754;2023-01-23T03:03:09;7.50;65.60
37910;DHT22;23741;49.446;8.754;2023-01-23T03:05:12;7.50;65.60
37910;DHT22;23741;49.446;8.754;2023-01-23T03:07:14;7.50;65.70
37910;DHT22;23741;49.446;8.754;2023-01-23T03:09:17;7.50;65.70
37910;DHT22;23741;49.446;8.754;2023-01-23T03:11:19;7.50;65.70
37910;DHT22;23741;49.446;8.754;2023-01-23T03:13:21;7.50;65.80
37910;DHT22;23741;49.446;8.754;2023-01-23T03:15:23;7.50;65.80
37910;DHT22;23741;49.446;8.754;2023-01-23T03:17:24;7.50;65.70
37910;DHT22;23741;49.446;8.754;2023-01-23T03:19:26;7.50;65.70
37910;DHT22;23741;49.446;8.754;2023-01-23T03:21:28;7.50;65.70
37910;DHT22;23741;49.446;8.754;2023-01-23T03:23:30;7.50;65.60
37910;DHT22;23741;49.446;8.754;2023-01-23T03:25:32;7.50;65.70
37910;DHT22;23741;49.446;8.754;2023-01-23T03:27:34;7.50;65.80
37910;DHT22;23741;49.446;8.754;2023-01-23T03:29:37;7.60;65.80
37910;DHT22;23741;49.446;8.754;2023-01-23T03:31:57;7.60;65.80
37910;DHT22;23741;49.446;8.754;2023-01-23T03:33:59;7.60;65.70
37910;DHT22;23741;49.446;8.754;2023-01-23T03:36:02;7.60;65.70
37910;DHT22;23741;49.446;8.754;2023-01-23T03:38:04;7.60;65.70
37910;DHT22;23741;49.446;8.754;2023-01-23T03:40:06;7.60;65.60
37910;DHT22;23741;49.446;8.754;2023-01-23T03:42:27;7.50;65.50
37910;DHT22;23741;49.446;8.754;2023-01-23T03:44:31;7.50;65.60
37910;DHT22;23741;49.446;8.754;2023-01-23T03:46:32;7.50;65.60
37910;DHT22;23741;49.446;8.754;2023-01-23T03:48:34;7.50;65.60
37910;DHT22;23741;49.446;8.754;2023-01-23T03:50:37;7.50;65.60
37910;DHT22;23741;49.446;8.754;2023-01-23T03:52:38;7.50;65.60
37910;DHT22;23741;49.446;8.754;2023-01-23T03:54:41;7.50;65.60
37910;DHT22;23741;49.446;8.754;2023-01-23T03:56:43;7.50;65.60
37910;DHT22;23741;49.446;8.754;2023-01-23T03:58:59;7.50;65.70
37910;DHT22;23741;49.446;8.754;2023-01-23T04:01:04;7.50;65.90
37910;DHT22;23741;49.446;8.754;2023-01-23T04:03:08;7.50;66.10
37910;DHT22;23741;49.446;8.754;2023-01-23T04:05:12;7.50;66.00
37910;DHT22;23741;49.446;8.754;2023-01-23T04:07:13;7.50;65.90
37910;DHT22;23741;49.446;8.754;2023-01-23T04:09:17;7.50;66.00
37910;DHT22;23741;49.446;8.754;2023-01-23T04:11:19;7.50;66.00
37910;DHT22;23741;49.446;8.754;2023-01-23T04:13:21;7.50;66.00
37910;DHT22;23741;49.446;8.754;2023-01-23T04:15:23;7.50;65.70
37910;DHT22;23741;49.446;8.754;2023-01-23T04:17:27;7.50;65.70
37910;DHT22;23741;49.446;8.754;2023-01-23T04:19:29;7.50;65.70
37910;DHT22;23741;49.446;8.754;2023-01-23T04:21:30;7.50;65.60
37910;DHT22;23741;49.446;8.754;2023-01-23T04:23:32;7.50;65.60
37910;DHT22;23741;49.446;8.754;2023-01-23T04:25:34;7.50;65.70
37910;DHT22;23741;49.446;8.754;2023-01-23T04:27:37;7.50;65.70
37910;DHT22;23741;49.446;8.754;2023-01-23T04:29:40;7.50;65.60
37910;DHT22;23741;49.446;8.754;2023-01-23T04:31:42;7.50;65.60
37910;DHT22;23741;49.446;8.754;2023-01-23T04:33:46;7.50;65.60
37910;DHT22;23741;49.446;8.754;2023-01-23T04:37:56;7.50;65.60
37910;DHT22;23741;49.446;8.754;2023-01-23T04:39:59;7.50;65.70
37910;DHT22;23741;49.446;8.754;2023-01-23T04:42:01;7.50;65.80
37910;DHT22;23741;49.446;8.754;2023-01-23T04:44:19;7.50;65.80
37910;DHT22;23741;49.446;8.754;2023-01-23T04:46:39;7.50;65.80
37910;DHT22;23741;49.446;8.754;2023-01-23T04:48:47;7.60;65.90
37910;DHT22;23741;49.446;8.754;2023-01-23T04:50:50;7.60;66.00
37910;DHT22;23741;49.446;8.754;2023-01-23T04:52:52;7.60;66.00
37910;DHT22;23741;49.446;8.754;2023-01-23T04:54:54;7.60;66.00
37910;DHT22;23741;49.446;8.754;2023-01-23T04:56:56;7.60;66.00
37910;DHT22;23741;49.446;8.754;2023-01-23T04:58:58;7.60;65.90
37910;DHT22;23741;49.446;8.754;2023-01-23T05:01:03;7.60;65.80
37910;DHT22;23741;49.446;8.754;2023-01-23T05:03:07;7.70;65.70
37910;DHT22;23741;49.446;8.754;2023-01-23T05:05:10;7.70;65.70
37910;DHT22;23741;49.446;8.754;2023-01-23T05:07:13;7.70;65.60
37910;DHT22;23741;49.446;8.754;2023-01-23T05:09:22;7.70;65.50
37910;DHT22;23741;49.446;8.754;2023-01-23T05:11:26;7.70;65.50
37910;DHT22;23741;49.446;8.754;2023-01-23T05:13:28;7.70;65.50
37910;DHT22;23741;49.446;8.754;2023-01-23T05:15:30;7.70;65.40
37910;DHT22;23741;49.446;8.754;2023-01-23T05:17:32;7.70;65.20
37910;DHT22;23741;49.446;8.754;2023-01-23T05:19:35;7.70;65.20
37910;DHT22;23741;49.446;8.754;2023-01-23T05:21:38;7.70;65.20
37910;DHT22;23741;49.446;8.754;2023-01-23T05:23:44;7.70;65.20
37910;DHT22;23741;49.446;8.754;2023-01-23T05:25:48;7.70;65.30
37910;DHT22;23741;49.446;8.754;2023-01-23T05:27:49;7.70;65.30
37910;DHT22;23741;49.446;8.754;2023-01-23T05:29:51;7.70;65.30
37910;DHT22;23741;49.446;8.754;2023-01-23T05:31:57;7.60;65.20
37910;DHT22;23741;49.446;8.754;2023-01-23T05:34:08;7.70;65.40
37910;DHT22;23741;49.446;8.754;2023-01-23T05:36:13;7.70;65.40
37910;DHT22;23741;49.446;8.754;2023-01-23T05:38:14;7.70;65.40
37910;DHT22;23741;49.446;8.754;2023-01-23T05:40:17;7.60;65.40
37910;DHT22;23741;49.446;8.754;2023-01-23T05:42:49;7.60;65.30
37910;DHT22;23741;49.446;8.754;2023-01-23T05:45:29;7.60;65.40
37910;DHT22;23741;49.446;8.754;2023-01-23T05:47:31;7.60;65.50
37910;DHT22;23741;49.446;8.754;2023-01-23T05:49:33;7.60;65.50
37910;DHT22;23741;49.446;8.754;2023-01-23T05:51:35;7.60;65.50
37910;DHT22;23741;49.446;8.754;2023-01-23T05:53:38;7.60;65.50
37910;DHT22;23741;49.446;8.754;2023-01-23T05:55:39;7.60;65.50
37910;DHT22;23741;49.446;8.754;2023-01-23T05:57:43;7.60;65.60
37910;DHT22;23741;49.446;8.754;2023-01-23T05:59:44;7.60;65.60
37910;DHT22;23741;49.446;8.754;2023-01-23T06:02:04;7.60;65.60
37910;DHT22;23741;49.446;8.754;2023-01-23T06:04:32;7.60;65.60
37910;DHT22;23741;49.446;8.754;2023-01-23T06:07:00;7.60;65.60
37910;DHT22;23741;49.446;8.754;2023-01-23T06:09:02;7.70;65.70
37910;DHT22;23741;49.446;8.754;2023-01-23T06:11:04;7.60;65.60
37910;DHT22;23741;49.446;8.754;2023-01-23T06:13:06;7.60;65.60
37910;DHT22;23741;49.446;8.754;2023-01-23T06:15:09;7.60;65.60
37910;DHT22;23741;49.446;8.754;2023-01-23T06:17:12;7.70;65.60
37910;DHT22;23741;49.446;8.754;2023-01-23T06:19:14;7.60;65.60
37910;DHT22;23741;49.446;8.754;2023-01-23T06:21:15;7.60;65.60
37910;DHT22;23741;49.446;8.754;2023-01-23T06:23:18;7.70;65.80
37910;DHT22;23741;49.446;8.754;2023-01-23T06:25:20;7.70;65.80
37910;DHT22;23741;49.446;8.754;2023-01-23T06:27:26;7.60;65.60
37910;DHT22;23741;49.446;8.754;2023-01-23T06:29:29;7.70;65.60
37910;DHT22;23741;49.446;8.754;2023-01-23T06:31:31;7.70;65.40
37910;DHT22;23741;49.446;8.754;2023-01-23T06:33:35;7.70;65.40
37910;DHT22;23741;49.446;8.754;2023-01-23T06:35:42;7.70;65.50
37910;DHT22;23741;49.446;8.754;2023-01-23T06:37:44;7.70;65.50
37910;DHT22;23741;49.446;8.754;2023-01-23T06:39:49;7.70;65.50
37910;DHT22;23741;49.446;8.754;2023-01-23T06:41:50;7.70;65.40
37910;DHT22;23741;49.446;8.754;2023-01-23T06:43:56;7.70;65.40
37910;DHT22;23741;49.446;8.754;2023-01-23T06:46:00;7.70;65.30
37910;DHT22;23741;49.446;8.754;2023-01-23T06:48:03;7.60;65.30
37910;DHT22;23741;49.446;8.754;2023-01-23T06:50:05;7.60;65.10
37910;DHT22;23741;49.446;8.754;2023-01-23T06:52:10;7.60;65.10
37910;DHT22;23741;49.446;8.754;2023-01-23T06:54:12;7.60;65.10
37910;DHT22;23741;49.446;8.754;2023-01-23T06:56:14;7.60;65.20
37910;DHT22;23741;49.446;8.754;2023-01-23T06:58:16;7.60;65.30
37910;DHT22;23741;49.446;8.754;2023-01-23T07:00:18;7.60;65.20
37910;DHT22;23741;49.446;8.754;2023-01-23T07:02:20;7.60;65.30
37910;DHT22;23741;49.446;8.754;2023-01-23T07:04:24;7.60;65.40
37910;DHT22;23741;49.446;8.754;2023-01-23T07:06:26;7.60;65.40
37910;DHT22;23741;49.446;8.754;2023-01-23T07:08:27;7.60;65.40
37910;DHT22;23741;49.446;8.754;2023-01-23T07:10:29;7.60;65.30
37910;DHT22;23741;49.446;8.754;2023-01-23T07:12:35;7.60;65.20
37910;DHT22;23741;49.446;8.754;2023-01-23T07:14:36;7.60;65.10
37910;DHT22;23741;49.446;8.754;2023-01-23T07:16:40;7.60;65.10
37910;DHT22;23741;49.446;8.754;2023-01-23T07:18:41;7.60;65.20
37910;DHT22;23741;49.446;8.754;2023-01-23T07:20:44;7.60;65.20
37910;DHT22;23741;49.446;8.754;2023-01-23T07:22:46;7.60;65.20
37910;DHT22;23741;49.446;8.754;2023-01-23T07:24:47;7.60;65.40
37910;DHT22;23741;49.446;8.754;2023-01-23T07:26:49;7.60;66.20
37910;DHT22;23741;49.446;8.754;2023-01-23T07:28:50;7.60;65.40
37910;DHT22;23741;49.446;8.754;2023-01-23T07:30:52;7.60;65.60
37910;DHT22;23741;49.446;8.754;2023-01-23T07:32:54;7.70;65.60
37910;DHT22;23741;49.446;8.754;2023-01-23T07:34:56;7.70;65.60
37910;DHT22;23741;49.446;8.754;2023-01-23T07:36:57;7.70;65.40
37910;DHT22;23741;49.446;8.754;2023-01-23T07:39:02;7.70;65.50
37910;DHT22;23741;49.446;8.754;2023-01-23T07:41:04;7.70;65.50
37910;DHT22;23741;49.446;8.754;2023-01-23T07:43:06;7.70;65.40
37910;DHT22;23741;49.446;8.754;2023-01-23T07:45:08;7.70;65.40
37910;DHT22;23741;49.446;8.754;2023-01-23T07:47:10;7.70;65.30
37910;DHT22;23741;49.446;8.754;2023-01-23T07:49:12;7.70;65.20
37910;DHT22;23741;49.446;8.754;2023-01-23T07:51:14;7.70;65.30
37910;DHT22;23741;49.446;8.754;2023-01-23T07:53:16;7.70;65.40
37910;DHT22;23741;49.446;8.754;2023-01-23T07:55:17;7.80;66.20
37910;DHT22;23741;49.446;8.754;2023-01-23T07:57:19;7.70;65.30
37910;DHT22;23741;49.446;8.754;2023-01-23T07:59:21;7.80;65.20
37910;DHT22;23741;49.446;8.754;2023-01-23T08:01:22;7.80;65.20
37910;DHT22;23741;49.446;8.754;2023-01-23T08:03:24;7.80;65.30
37910;DHT22;23741;49.446;8.754;2023-01-23T08:05:29;7.80;65.20
37910;DHT22;23741;49.446;8.754;2023-01-23T08:07:31;7.80;65.30
37910;DHT22;23741;49.446;8.754;2023-01-23T08:09:33;7.80;65.30
37910;DHT22;23741;49.446;8.754;2023-01-23T08:11:34;7.80;65.40
37910;DHT22;23741;49.446;8.754;2023-01-23T08:13:36;7.80;65.40
37910;DHT22;23741;49.446;8.754;2023-01-23T08:15:38;7.80;65.30
37910;DHT22;23741;49.446;8.754;2023-01-23T08:17:40;7.80;65.40
37910;DHT22;23741;49.446;8.754;2023-01-23T08:19:42;7.80;65.50
37910;DHT22;23741;49.446;8.754;2023-01-23T08:21:44;7.80;65.50
37910;DHT22;23741;49.446;8.754;2023-01-23T08:23:46;7.80;65.50
37910;DHT22;23741;49.446;8.754;2023-01-23T08:25:51;7.80;65.50
37910;DHT22;23741;49.446;8.754;2023-01-23T08:27:52;7.80;65.50
37910;DHT22;23741;49.446;8.754;2023-01-23T08:29:54;7.90;65.50
37910;DHT22;23741;49.446;8.754;2023-01-23T08:31:56;7.90;65.50
37910;DHT22;23741;49.446;8.754;2023-01-23T08:33:58;7.90;65.50
37910;DHT22;23741;49.446;8.754;2023-01-23T08:36:00;7.90;65.40
37910;DHT22;23741;49.446;8.754;2023-01-23T08:38:02;7.90;65.30
37910;DHT22;23741;49.446;8.754;2023-01-23T08:40:04;7.90;65.30
37910;DHT22;23741;49.446;8.754;2023-01-23T08:42:06;7.90;65.30
37910;DHT22;23741;49.446;8.754;2023-01-23T08:44:08;7.90;65.30
37910;DHT22;23741;49.446;8.754;2023-01-23T08:46:12;8.00;65.20
37910;DHT22;23741;49.446;8.754;2023-01-23T08:48:14;8.00;65.00
37910;DHT22;23741;49.446;8.754;2023-01-23T08:50:16;8.00;65.00
37910;DHT22;23741;49.446;8.754;2023-01-23T08:52:18;8.00;64.70
37910;DHT22;23741;49.446;8.754;2023-01-23T08:54:20;8.00;64.70
37910;DHT22;23741;49.446;8.754;2023-01-23T08:56:22;7.90;64.70
37910;DHT22;23741;49.446;8.754;2023-01-23T08:58:24;8.00;64.80
37910;DHT22;23741;49.446;8.754;2023-01-23T09:00:26;7.90;64.70
37910;DHT22;23741;49.446;8.754;2023-01-23T09:02:28;8.00;64.60
37910;DHT22;23741;49.446;8.754;2023-01-23T09:04:30;8.00;64.60
37910;DHT22;23741;49.446;8.754;2023-01-23T09:06:32;8.00;64.60
37910;DHT22;23741;49.446;8.754;2023-01-23T09:08:33;8.00;64.60
37910;DHT22;23741;49.446;8.754;2023-01-23T09:10:36;8.00;64.30
37910;DHT22;23741;49.446;8.754;2023-01-23T09:12:38;7.90;64.00
37910;DHT22;23741;49.446;8.754;2023-01-23T09:14:42;7.90;64.10
37910;DHT22;23741;49.446;8.754;2023-01-23T09:16:43;7.90;64.10
37910;DHT22;23741;49.446;8.754;2023-01-23T09:18:45;7.90;64.20
37910;DHT22;23741;49.446;8.754;2023-01-23T09:20:47;7.90;64.20
37910;DHT22;23741;49.446;8.754;2023-01-23T09:22:50;7.90;64.10
37910;DHT22;23741;49.446;8.754;2023-01-23T09:24:51;7.90;64.20
37910;DHT22;23741;49.446;8.754;2023-01-23T09:26:53;7.90;64.20
37910;DHT22;23741;49.446;8.754;2023-01-23T09:28:55;7.90;64.30
37910;DHT22;23741;49.446;8.754;2023-01-23T09:31:00;7.90;64.40
37910;DHT22;23741;49.446;8.754;2023-01-23T09:33:02;7.90;64.50
37910;DHT22;23741;49.446;8.754;2023-01-23T09:35:04;7.90;64.40
37910;DHT22;23741;49.446;8.754;2023-01-23T09:37:06;7.90;63.90
37910;DHT22;23741;49.446;8.754;2023-01-23T09:39:08;7.90;63.90
37910;DHT22;23741;49.446;8.754;2023-01-23T09:41:13;7.90;63.90
37910;DHT22;23741;49.446;8.754;2023-01-23T09:45:21;7.90;63.50
37910;DHT22;23741;49.446;8.754;2023-01-23T09:48:12;7.90;62.90
37910;DHT22;23741;49.446;8.754;2023-01-23T09:49:54;7.90;63.20
37910;DHT22;23741;49.446;8.754;2023-01-23T09:52:06;7.90;63.50
37910;DHT22;23741;49.446;8.754;2023-01-23T09:54:17;7.90;63.70
37910;DHT22;23741;49.446;8.754;2023-01-23T09:56:30;7.80;63.30
37910;DHT22;23741;49.446;8.754;2023-01-23T09:58:36;7.80;63.10
37910;DHT22;23741;49.446;8.754;2023-01-23T10:00:40;7.80;63.30
37910;DHT22;23741;49.446;8.754;2023-01-23T10:02:42;7.80;63.60
37910;DHT22;23741;49.446;8.754;2023-01-23T10:04:46;7.80;63.90
37910;DHT22;23741;49.446;8.754;2023-01-23T10:17:55;7.90;64.10
37910;DHT22;23741;49.446;8.754;2023-01-23T10:26:46;7.90;63.40
37910;DHT22;23741;49.446;8.754;2023-01-23T10:28:50;7.90;63.60
37910;DHT22;23741;49.446;8.754;2023-01-23T10:30:56;7.90;63.70
37910;DHT22;23741;49.446;8.754;2023-01-23T10:37:45;7.90;63.90
37910;DHT22;23741;49.446;8.754;2023-01-23T10:41:54;7.90;64.40
37910;DHT22;23741;49.446;8.754;2023-01-23T10:44:16;8.00;64.10
37910;DHT22;23741;49.446;8.754;2023-01-23T10:46:20;7.90;63.60
37910;DHT22;23741;49.446;8.754;2023-01-23T10:50:34;7.90;63.70
37910;DHT22;23741;49.446;8.754;2023-01-23T10:52:38;8.00;63.60
37910;DHT22;23741;49.446;8.754;2023-01-23T10:54:45;8.00;63.80
37910;DHT22;23741;49.446;8.754;2023-01-23T10:56:57;8.00;63.80
37910;DHT22;23741;49.446;8.754;2023-01-23T10:59:00;8.00;64.00
37910;DHT22;23741;49.446;8.754;2023-01-23T11:01:03;8.00;63.90
37910;DHT22;23741;49.446;8.754;2023-01-23T11:05:40;8.00;63.70
37910;DHT22;23741;49.446;8.754;2023-01-23T11:07:53;8.00;63.40
37910;DHT22;23741;49.446;8.754;2023-01-23T11:09:57;8.00;63.50
37910;DHT22;23741;49.446;8.754;2023-01-23T11:12:00;8.00;63.20
37910;DHT22;23741;49.446;8.754;2023-01-23T11:16:03;8.00;63.20
37910;DHT22;23741;49.446;8.754;2023-01-23T11:18:15;8.00;63.40
37910;DHT22;23741;49.446;8.754;2023-01-23T11:20:30;8.00;63.30
37910;DHT22;23741;49.446;8.754;2023-01-23T11:22:35;8.00;63.30
37910;DHT22;23741;49.446;8.754;2023-01-23T11:24:38;8.00;63.50
37910;DHT22;23741;49.446;8.754;2023-01-23T11:26:42;7.90;63.40
37910;DHT22;23741;49.446;8.754;2023-01-23T11:28:47;8.00;63.60
37910;DHT22;23741;49.446;8.754;2023-01-23T11:35:48;8.00;63.90
37910;DHT22;23741;49.446;8.754;2023-01-23T11:37:51;8.00;63.90
37910;DHT22;23741;49.446;8.754;2023-01-23T11:41:55;8.10;63.80
37910;DHT22;23741;49.446;8.754;2023-01-23T11:43:57;8.10;63.60
37910;DHT22;23741;49.446;8.754;2023-01-23T11:57:04;8.20;64.10
37910;DHT22;23741;49.446;8.754;2023-01-23T12:01:28;8.20;64.10
37910;DHT22;23741;49.446;8.754;2023-01-23T12:05:42;8.30;64.10
37910;DHT22;23741;49.446;8.754;2023-01-23T12:21:18;8.40;63.80
37910;DHT22;23741;49.446;8.754;2023-01-23T12:27:38;8.50;63.60
37910;DHT22;23741;49.446;8.754;2023-01-23T12:29:45;8.50;63.70
37910;DHT22;23741;49.446;8.754;2023-01-23T12:47:26;8.50;63.70
37910;DHT22;23741;49.446;8.754;2023-01-23T12:49:32;8.60;63.60
37910;DHT22;23741;49.446;8.754;2023-01-23T12:51:38;8.60;63.30
37910;DHT22;23741;49.446;8.754;2023-01-23T12:53:41;8.60;62.80
37910;DHT22;23741;49.446;8.754;2023-01-23T12:55:58;8.60;63.00
37910;DHT22;23741;49.446;8.754;2023-01-23T12:58:02;8.60;63.00
37910;DHT22;23741;49.446;8.754;2023-01-23T13:02:23;8.50;62.80
37910;DHT22;23741;49.446;8.754;2023-01-23T13:06:52;8.50;63.00
37910;DHT22;23741;49.446;8.754;2023-01-23T13:11:22;8.50;62.40
37910;DHT22;23741;49.446;8.754;2023-01-23T13:13:41;8.50;62.10
37910;DHT22;23741;49.446;8.754;2023-01-23T13:15:43;8.50;62.50
37910;DHT22;23741;49.446;8.754;2023-01-23T13:18:01;8.40;62.80
37910;DHT22;23741;49.446;8.754;2023-01-23T13:20:11;8.40;62.60
37910;DHT22;23741;49.446;8.754;2023-01-23T13:22:37;8.40;62.70
37910;DHT22;23741;49.446;8.754;2023-01-23T13:24:42;8.40;62.70
37910;DHT22;23741;49.446;8.754;2023-01-23T13:27:30;8.30;62.80
37910;DHT22;23741;49.446;8.754;2023-01-23T13:29:46;8.30;62.70
37910;DHT22;23741;49.446;8.754;2023-01-23T13:31:48;8.30;62.50
37910;DHT22;23741;49.446;8.754;2023-01-23T13:33:53;8.30;62.70
37910;DHT22;23741;49.446;8.754;2023-01-23T13:36:11;8.20;62.90
37910;DHT22;23741;49.446;8.754;2023-01-23T13:40:19;8.20;63.10
37910;DHT22;23741;49.446;8.754;2023-01-23T13:44:24;8.20;63.40
37910;DHT22;23741;49.446;8.754;2023-01-23T13:49:13;8.20;63.50
37910;DHT22;23741;49.446;8.754;2023-01-23T13:51:53;8.20;63.30
37910;DHT22;23741;49.446;8.754;2023-01-23T13:54:12;8.20;64.20
37910;DHT22;23741;49.446;8.754;2023-01-23T13:56:47;8.30;63.20
37910;DHT22;23741;49.446;8.754;2023-01-23T14:01:57;8.30;63.10
37910;DHT22;23741;49.446;8.754;2023-01-23T14:04:34;8.30;63.10
37910;DHT22;23741;49.446;8.754;2023-01-23T14:07:25;8.30;63.10
37910;DHT22;23741;49.446;8.754;2023-01-23T14:09:57;8.30;63.20
37910;DHT22;23741;49.446;8.754;2023-01-23T14:12:13;8.30;63.10
37910;DHT22;23741;49.446;8.754;2023-01-23T14:14:34;8.30;63.10
37910;DHT22;23741;49.446;8.754;2023-01-23T14:17:10;8.30;63.20
37910;DHT22;23741;49.446;8.754;2023-01-23T14:19:27;8.40;63.50
37910;DHT22;23741;49.446;8.754;2023-01-23T14:21:49;8.40;63.50
37910;DHT22;23741;49.446;8.754;2023-01-23T14:23:58;8.50;63.40
37910;DHT22;23741;49.446;8.754;2023-01-23T14:26:03;8.50;63.20
37910;DHT22;23741;49.446;8.754;2023-01-23T14:28:05;8.50;63.20
37910;DHT22;23741;49.446;8.754;2023-01-23T14:30:15;8.50;63.30
37910;DHT22;23741;49.446;8.754;2023-01-23T14:32:21;8.50;63.40
37910;DHT22;23741;49.446;8.754;2023-01-23T14:34:24;8.60;63.30
37910;DHT22;23741;49.446;8.754;2023-01-23T14:36:26;8.60;63.10
37910;DHT22;23741;49.446;8.754;2023-01-23T14:38:30;8.60;62.80
37910;DHT22;23741;49.446;8.754;2023-01-23T14:40:32;8.60;62.80
37910;DHT22;23741;49.446;8.754;2023-01-23T14:43:00;8.60;62.90
37910;DHT22;23741;49.446;8.754;2023-01-23T14:45:02;8.70;62.40
37910;DHT22;23741;49.446;8.754;2023-01-23T14:47:04;8.60;62.50
37910;DHT22;23741;49.446;8.754;2023-01-23T14:49:08;8.60;62.50
37910;DHT22;23741;49.446;8.754;2023-01-23T14:53:21;8.60;62.40
37910;DHT22;23741;49.446;8.754;2023-01-23T14:55:23;8.60;62.40
37910;DHT22;23741;49.446;8.754;2023-01-23T14:57:33;8.60;62.30
37910;DHT22;23741;49.446;8.754;2023-01-23T14:59:36;8.60;62.40
37910;DHT22;23741;49.446;8.754;2023-01-23T15:01:39;8.60;62.40
37910;DHT22;23741;49.446;8.754;2023-01-23T15:03:53;8.50;62.20
37910;DHT22;23741;49.446;8.754;2023-01-23T15:05:56;8.50;62.40
37910;DHT22;23741;49.446;8.754;2023-01-23T15:10:03;8.50;62.60
37910;DHT22;23741;49.446;8.754;2023-01-23T15:12:06;8.40;62.30
37910;DHT22;23741;49.446;8.754;2023-01-23T15:14:20;8.40;63.40
37910;DHT22;23741;49.446;8.754;2023-01-23T15:16:23;8.40;62.50
37910;DHT22;23741;49.446;8.754;2023-01-23T15:20:35;8.40;62.90
37910;DHT22;23741;49.446;8.754;2023-01-23T15:22:38;8.40;63.00
37910;DHT22;23741;49.446;8.754;2023-01-23T15:24:40;8.30;63.10
37910;DHT22;23741;49.446;8.754;2023-01-23T15:28:57;8.30;63.40
37910;DHT22;23741;49.446;8.754;2023-01-23T15:31:00;8.30;63.40